sensor_id;sensor_type;location;lat;lon;timestamp;P1;durP1;ratioP1;P2;durP2;ratioP2
48526;SDS011;34317;51.660;5.824;2023-02-01T00:01:30;12.50;;;2.75;;
48526;SDS011;34317;51.660;5.824;2023-02-01T00:03:57;13.15;;;3.22;;
48526;SDS011;34317;51.660;5.824;2023-02-01T00:06:24;15.30;;;3.17;;
48526;SDS011;34317;51.660;5.824;2023-02-01T00:08:52;19.58;;;3.35;;
48526;SDS011;34317;51.660;5.824;2023-02-01T00:11:21;15.45;;;3.13;;
48526;SDS011;34317;51.660;5.824;2023-02-01T00:13:49;18.67;;;3.45;;
48526;SDS011;34317;51.660;5.824;2023-02-01T00:18:48;13.80;;;3.35;;
48526;SDS011;34317;51.660;5.824;2023-02-01T00:21:17;15.38;;;3.28;;
48526;SDS011;34317;51.660;5.824;2023-02-01T00:23:46;14.38;;;3.28;;
48526;SDS011;34317;51.660;5.824;2023-02-01T00:26:14;11.95;;;3.42;;
48526;SDS011;34317;51.660;5.824;2023-02-01T00:28:43;13.95;;;3.00;;
48526;SDS011;34317;51.660;5.824;2023-02-01T00:31:11;10.73;;;3.03;;
48526;SDS011;34317;51.660;5.824;2023-02-01T00:33:39;14.70;;;4.70;;
48526;SDS011;34317;51.660;5.824;2023-02-01T00:36:06;21.80;;;3.63;;
48526;SDS011;34317;51.660;5.824;2023-02-01T00:38:36;16.08;;;3.20;;
48526;SDS011;34317;51.660;5.824;2023-02-01T00:43:40;18.30;;;3.47;;
48526;SDS011;34317;51.660;5.824;2023-02-01T00:46:08;14.75;;;3.60;;
48526;SDS011;34317;51.660;5.824;2023-02-01T00:48:36;13.80;;;3.35;;
48526;SDS011;34317;51.660;5.824;2023-02-01T00:51:05;13.90;;;3.00;;
48526;SDS011;34317;51.660;5.824;2023-02-01T00:53:34;16.13;;;3.30;;
48526;SDS011;34317;51.660;5.824;2023-02-01T00:56:01;16.33;;;3.58;;
48526;SDS011;34317;51.660;5.824;2023-02-01T00:58:28;13.32;;;2.85;;
48526;SDS011;34317;51.660;5.824;2023-02-01T01:01:06;17.42;;;3.20;;
48526;SDS011;34317;51.660;5.824;2023-02-01T01:03:36;16.05;;;3.00;;
48526;SDS011;34317;51.660;5.824;2023-02-01T01:06:15;14.45;;;3.25;;
48526;SDS011;34317;51.660;5.824;2023-02-01T01:08:43;15.02;;;2.90;;
48526;SDS011;34317;51.660;5.824;2023-02-01T01:11:12;15.10;;;2.83;;
48526;SDS011;34317;51.660;5.824;2023-02-01T01:13:41;20.20;;;3.45;;
48526;SDS011;34317;51.660;5.824;2023-02-01T01:16:10;18.23;;;2.70;;
48526;SDS011;34317;51.660;5.824;2023-02-01T01:18:37;10.32;;;2.20;;
48526;SDS011;34317;51.660;5.824;2023-02-01T01:21:05;14.02;;;2.13;;
48526;SDS011;34317;51.660;5.824;2023-02-01T01:23:34;15.90;;;2.75;;
48526;SDS011;34317;51.660;5.824;2023-02-01T01:26:06;15.13;;;2.30;;
48526;SDS011;34317;51.660;5.824;2023-02-01T01:28:34;16.75;;;2.55;;
48526;SDS011;34317;51.660;5.824;2023-02-01T01:31:02;15.55;;;2.58;;
48526;SDS011;34317;51.660;5.824;2023-02-01T01:33:30;14.23;;;2.65;;
48526;SDS011;34317;51.660;5.824;2023-02-01T01:35:57;13.27;;;2.60;;
48526;SDS011;34317;51.660;5.824;2023-02-01T01:38:24;19.80;;;3.47;;
48526;SDS011;34317;51.660;5.824;2023-02-01T01:40:51;10.57;;;2.25;;
48526;SDS011;34317;51.660;5.824;2023-02-01T01:43:19;14.20;;;2.33;;
48526;SDS011;34317;51.660;5.824;2023-02-01T01:45:50;12.07;;;2.15;;
48526;SDS011;34317;51.660;5.824;2023-02-01T01:48:25;13.32;;;2.50;;
48526;SDS011;34317;51.660;5.824;2023-02-01T01:50:57;11.30;;;2.38;;
48526;SDS011;34317;51.660;5.824;2023-02-01T01:53:31;16.77;;;2.72;;
48526;SDS011;34317;51.660;5.824;2023-02-01T01:56:02;13.90;;;2.33;;
48526;SDS011;34317;51.660;5.824;2023-02-01T01:58:30;16.35;;;2.38;;
48526;SDS011;34317;51.660;5.824;2023-02-01T02:01:00;16.52;;;2.20;;
48526;SDS011;34317;51.660;5.824;2023-02-01T02:03:31;14.90;;;2.58;;
48526;SDS011;34317;51.660;5.824;2023-02-01T02:06:02;14.32;;;2.58;;
48526;SDS011;34317;51.660;5.824;2023-02-01T02:08:34;12.00;;;2.60;;
48526;SDS011;34317;51.660;5.824;2023-02-01T02:11:01;14.48;;;2.35;;
48526;SDS011;34317;51.660;5.824;2023-02-01T02:13:33;13.95;;;2.47;;
48526;SDS011;34317;51.660;5.824;2023-02-01T02:33:58;11.27;;;1.80;;
48526;SDS011;34317;51.660;5.824;2023-02-01T02:45:14;11.05;;;2.17;;
48526;SDS011;34317;51.660;5.824;2023-02-01T02:51:04;16.60;;;2.40;;
48526;SDS011;34317;51.660;5.824;2023-02-01T02:54:12;14.50;;;2.30;;
48526;SDS011;34317;51.660;5.824;2023-02-01T02:57:02;13.83;;;2.57;;
48526;SDS011;34317;51.660;5.824;2023-02-01T02:59:51;11.45;;;2.67;;
48526;SDS011;34317;51.660;5.824;2023-02-01T03:02:38;10.30;;;2.33;;
48526;SDS011;34317;51.660;5.824;2023-02-01T03:05:25;11.32;;;2.25;;
48526;SDS011;34317;51.660;5.824;2023-02-01T03:07:57;12.70;;;2.15;;
48526;SDS011;34317;51.660;5.824;2023-02-01T03:16:07;15.23;;;2.60;;
48526;SDS011;34317;51.660;5.824;2023-02-01T03:18:38;14.18;;;2.83;;
48526;SDS011;34317;51.660;5.824;2023-02-01T03:21:12;12.50;;;2.63;;
48526;SDS011;34317;51.660;5.824;2023-02-01T03:26:15;11.55;;;2.22;;
48526;SDS011;34317;51.660;5.824;2023-02-01T03:28:48;14.27;;;2.53;;
48526;SDS011;34317;51.660;5.824;2023-02-01T03:31:21;18.63;;;2.60;;
48526;SDS011;34317;51.660;5.824;2023-02-01T03:33:50;17.55;;;2.53;;
48526;SDS011;34317;51.660;5.824;2023-02-01T03:36:25;14.45;;;2.80;;
48526;SDS011;34317;51.660;5.824;2023-02-01T03:41:52;13.65;;;2.33;;
48526;SDS011;34317;51.660;5.824;2023-02-01T03:44:23;18.83;;;2.80;;
48526;SDS011;34317;51.660;5.824;2023-02-01T03:47:02;23.92;;;3.20;;
48526;SDS011;34317;51.660;5.824;2023-02-01T03:49:35;15.32;;;3.17;;
48526;SDS011;34317;51.660;5.824;2023-02-01T03:52:06;11.23;;;2.20;;
48526;SDS011;34317;51.660;5.824;2023-02-01T03:54:38;11.43;;;2.78;;
48526;SDS011;34317;51.660;5.824;2023-02-01T03:57:07;22.33;;;3.22;;
48526;SDS011;34317;51.660;5.824;2023-02-01T03:59:42;14.13;;;2.83;;
48526;SDS011;34317;51.660;5.824;2023-02-01T04:02:11;13.57;;;2.58;;
48526;SDS011;34317;51.660;5.824;2023-02-01T04:04:38;16.15;;;3.10;;
48526;SDS011;34317;51.660;5.824;2023-02-01T04:07:06;13.93;;;2.45;;
48526;SDS011;34317;51.660;5.824;2023-02-01T04:09:33;12.95;;;2.33;;
48526;SDS011;34317;51.660;5.824;2023-02-01T04:12:00;11.98;;;2.47;;
48526;SDS011;34317;51.660;5.824;2023-02-01T04:14:27;17.27;;;3.25;;
48526;SDS011;34317;51.660;5.824;2023-02-01T04:16:55;15.45;;;2.42;;
48526;SDS011;34317;51.660;5.824;2023-02-01T04:19:22;13.32;;;2.67;;
48526;SDS011;34317;51.660;5.824;2023-02-01T04:21:49;16.90;;;2.78;;
48526;SDS011;34317;51.660;5.824;2023-02-01T04:24:16;11.40;;;2.70;;
48526;SDS011;34317;51.660;5.824;2023-02-01T04:26:43;13.98;;;3.03;;
48526;SDS011;34317;51.660;5.824;2023-02-01T04:29:10;16.13;;;3.03;;
48526;SDS011;34317;51.660;5.824;2023-02-01T04:31:37;15.23;;;3.22;;
48526;SDS011;34317;51.660;5.824;2023-02-01T04:34:04;18.23;;;3.20;;
48526;SDS011;34317;51.660;5.824;2023-02-01T04:36:31;13.02;;;2.42;;
48526;SDS011;34317;51.660;5.824;2023-02-01T04:38:58;14.15;;;2.67;;
48526;SDS011;34317;51.660;5.824;2023-02-01T04:41:25;17.63;;;2.50;;
48526;SDS011;34317;51.660;5.824;2023-02-01T04:43:52;10.35;;;2.38;;
48526;SDS011;34317;51.660;5.824;2023-02-01T04:46:20;19.00;;;2.30;;
48526;SDS011;34317;51.660;5.824;2023-02-01T04:48:47;14.95;;;2.65;;
48526;SDS011;34317;51.660;5.824;2023-02-01T04:51:14;14.23;;;2.80;;
48526;SDS011;34317;51.660;5.824;2023-02-01T04:53:41;13.00;;;2.35;;
48526;SDS011;34317;51.660;5.824;2023-02-01T04:56:09;12.43;;;2.75;;
48526;SDS011;34317;51.660;5.824;2023-02-01T04:58:36;18.38;;;2.65;;
48526;SDS011;34317;51.660;5.824;2023-02-01T05:01:03;19.77;;;2.60;;
48526;SDS011;34317;51.660;5.824;2023-02-01T05:03:32;14.25;;;2.58;;
48526;SDS011;34317;51.660;5.824;2023-02-01T05:06:00;16.73;;;2.80;;
48526;SDS011;34317;51.660;5.824;2023-02-01T05:08:27;13.75;;;2.60;;
48526;SDS011;34317;51.660;5.824;2023-02-01T05:10:55;15.77;;;2.70;;
48526;SDS011;34317;51.660;5.824;2023-02-01T05:13:22;19.85;;;2.88;;
48526;SDS011;34317;51.660;5.824;2023-02-01T05:16:08;24.35;;;3.50;;
48526;SDS011;34317;51.660;5.824;2023-02-01T05:18:35;17.52;;;2.90;;
48526;SDS011;34317;51.660;5.824;2023-02-01T05:21:02;17.00;;;2.80;;
48526;SDS011;34317;51.660;5.824;2023-02-01T05:23:30;16.60;;;2.90;;
48526;SDS011;34317;51.660;5.824;2023-02-01T05:25:58;12.55;;;2.50;;
48526;SDS011;34317;51.660;5.824;2023-02-01T05:28:27;14.98;;;2.67;;
48526;SDS011;34317;51.660;5.824;2023-02-01T05:30:55;21.88;;;3.03;;
48526;SDS011;34317;51.660;5.824;2023-02-01T05:33:22;16.58;;;2.92;;
48526;SDS011;34317;51.660;5.824;2023-02-01T05:35:49;17.27;;;2.90;;
48526;SDS011;34317;51.660;5.824;2023-02-01T05:38:17;22.30;;;3.33;;
48526;SDS011;34317;51.660;5.824;2023-02-01T05:40:44;15.10;;;2.72;;
48526;SDS011;34317;51.660;5.824;2023-02-01T05:43:16;19.23;;;2.85;;
48526;SDS011;34317;51.660;5.824;2023-02-01T05:45:43;18.48;;;2.88;;
48526;SDS011;34317;51.660;5.824;2023-02-01T05:48:10;19.00;;;3.38;;
48526;SDS011;34317;51.660;5.824;2023-02-01T05:50:37;21.33;;;3.67;;
48526;SDS011;34317;51.660;5.824;2023-02-01T05:53:08;14.32;;;2.75;;
48526;SDS011;34317;51.660;5.824;2023-02-01T05:55:35;12.40;;;2.72;;
48526;SDS011;34317;51.660;5.824;2023-02-01T05:58:03;18.85;;;2.70;;
48526;SDS011;34317;51.660;5.824;2023-02-01T06:00:31;20.92;;;3.22;;
48526;SDS011;34317;51.660;5.824;2023-02-01T06:02:58;17.88;;;3.00;;
48526;SDS011;34317;51.660;5.824;2023-02-01T06:05:25;17.90;;;2.83;;
48526;SDS011;34317;51.660;5.824;2023-02-01T06:07:52;19.92;;;2.70;;
48526;SDS011;34317;51.660;5.824;2023-02-01T06:10:20;19.38;;;2.80;;
48526;SDS011;34317;51.660;5.824;2023-02-01T06:12:47;18.45;;;2.75;;
48526;SDS011;34317;51.660;5.824;2023-02-01T06:15:15;22.30;;;3.60;;
48526;SDS011;34317;51.660;5.824;2023-02-01T06:17:45;13.98;;;2.90;;
48526;SDS011;34317;51.660;5.824;2023-02-01T06:20:13;13.07;;;2.90;;
48526;SDS011;34317;51.660;5.824;2023-02-01T06:22:43;20.00;;;2.78;;
48526;SDS011;34317;51.660;5.824;2023-02-01T06:25:10;17.15;;;2.97;;
48526;SDS011;34317;51.660;5.824;2023-02-01T06:27:37;19.65;;;2.72;;
48526;SDS011;34317;51.660;5.824;2023-02-01T06:30:05;19.70;;;3.15;;
48526;SDS011;34317;51.660;5.824;2023-02-01T06:32:34;15.70;;;2.78;;
48526;SDS011;34317;51.660;5.824;2023-02-01T06:35:01;16.88;;;3.50;;
48526;SDS011;34317;51.660;5.824;2023-02-01T06:37:28;18.83;;;2.67;;
48526;SDS011;34317;51.660;5.824;2023-02-01T06:39:56;16.85;;;3.10;;
48526;SDS011;34317;51.660;5.824;2023-02-01T06:42:23;19.10;;;3.53;;
48526;SDS011;34317;51.660;5.824;2023-02-01T06:44:50;17.90;;;2.97;;
48526;SDS011;34317;51.660;5.824;2023-02-01T06:47:17;16.15;;;2.92;;
48526;SDS011;34317;51.660;5.824;2023-02-01T06:49:44;17.48;;;3.05;;
48526;SDS011;34317;51.660;5.824;2023-02-01T06:52:11;18.13;;;3.00;;
48526;SDS011;34317;51.660;5.824;2023-02-01T06:54:38;15.80;;;3.03;;
48526;SDS011;34317;51.660;5.824;2023-02-01T06:57:05;17.52;;;2.92;;
48526;SDS011;34317;51.660;5.824;2023-02-01T06:59:32;17.15;;;2.40;;
48526;SDS011;34317;51.660;5.824;2023-02-01T07:01:59;11.95;;;2.67;;
48526;SDS011;34317;51.660;5.824;2023-02-01T07:04:27;14.43;;;2.78;;
48526;SDS011;34317;51.660;5.824;2023-02-01T07:06:54;12.85;;;2.85;;
48526;SDS011;34317;51.660;5.824;2023-02-01T07:09:21;19.90;;;2.63;;
48526;SDS011;34317;51.660;5.824;2023-02-01T07:11:48;13.35;;;2.65;;
48526;SDS011;34317;51.660;5.824;2023-02-01T07:14:15;14.98;;;2.55;;
48526;SDS011;34317;51.660;5.824;2023-02-01T07:16:42;18.45;;;2.75;;
48526;SDS011;34317;51.660;5.824;2023-02-01T07:19:09;16.83;;;2.60;;
48526;SDS011;34317;51.660;5.824;2023-02-01T07:21:36;17.60;;;2.20;;
48526;SDS011;34317;51.660;5.824;2023-02-01T07:24:03;8.30;;;1.85;;
48526;SDS011;34317;51.660;5.824;2023-02-01T07:26:31;13.20;;;2.15;;
48526;SDS011;34317;51.660;5.824;2023-02-01T07:28:59;11.20;;;2.05;;
48526;SDS011;34317;51.660;5.824;2023-02-01T07:31:26;11.82;;;2.13;;
48526;SDS011;34317;51.660;5.824;2023-02-01T07:33:55;10.63;;;2.63;;
48526;SDS011;34317;51.660;5.824;2023-02-01T07:36:24;10.10;;;2.00;;
48526;SDS011;34317;51.660;5.824;2023-02-01T07:38:51;14.95;;;1.75;;
48526;SDS011;34317;51.660;5.824;2023-02-01T07:41:22;12.98;;;2.47;;
48526;SDS011;34317;51.660;5.824;2023-02-01T07:43:51;10.75;;;2.17;;
48526;SDS011;34317;51.660;5.824;2023-02-01T07:46:19;8.88;;;1.80;;
48526;SDS011;34317;51.660;5.824;2023-02-01T07:48:47;15.65;;;2.42;;
48526;SDS011;34317;51.660;5.824;2023-02-01T07:51:15;10.50;;;1.70;;
48526;SDS011;34317;51.660;5.824;2023-02-01T07:53:43;9.15;;;2.08;;
48526;SDS011;34317;51.660;5.824;2023-02-01T07:56:15;11.52;;;2.05;;
48526;SDS011;34317;51.660;5.824;2023-02-01T07:58:51;13.15;;;1.90;;
48526;SDS011;34317;51.660;5.824;2023-02-01T08:01:22;12.55;;;2.03;;
48526;SDS011;34317;51.660;5.824;2023-02-01T08:03:55;12.32;;;2.15;;
48526;SDS011;34317;51.660;5.824;2023-02-01T08:06:23;10.82;;;1.85;;
48526;SDS011;34317;51.660;5.824;2023-02-01T08:08:52;14.27;;;2.63;;
48526;SDS011;34317;51.660;5.824;2023-02-01T08:11:20;19.70;;;3.50;;
48526;SDS011;34317;51.660;5.824;2023-02-01T08:13:48;12.00;;;2.10;;
48526;SDS011;34317;51.660;5.824;2023-02-01T08:16:16;9.40;;;1.95;;
48526;SDS011;34317;51.660;5.824;2023-02-01T08:18:45;9.70;;;2.28;;
48526;SDS011;34317;51.660;5.824;2023-02-01T08:21:13;6.78;;;1.95;;
48526;SDS011;34317;51.660;5.824;2023-02-01T08:23:44;14.20;;;2.50;;
48526;SDS011;34317;51.660;5.824;2023-02-01T08:26:12;9.68;;;2.70;;
48526;SDS011;34317;51.660;5.824;2023-02-01T08:28:42;13.20;;;2.83;;
48526;SDS011;34317;51.660;5.824;2023-02-01T08:31:12;7.72;;;2.17;;
48526;SDS011;34317;51.660;5.824;2023-02-01T08:33:44;9.88;;;2.38;;
48526;SDS011;34317;51.660;5.824;2023-02-01T08:36:15;11.90;;;2.45;;
48526;SDS011;34317;51.660;5.824;2023-02-01T08:38:43;13.35;;;2.55;;
48526;SDS011;34317;51.660;5.824;2023-02-01T08:41:11;7.32;;;1.88;;
48526;SDS011;34317;51.660;5.824;2023-02-01T08:43:40;9.13;;;2.30;;
48526;SDS011;34317;51.660;5.824;2023-02-01T08:46:08;9.32;;;2.17;;
48526;SDS011;34317;51.660;5.824;2023-02-01T08:48:37;12.10;;;2.30;;
48526;SDS011;34317;51.660;5.824;2023-02-01T08:51:06;6.57;;;2.17;;
48526;SDS011;34317;51.660;5.824;2023-02-01T08:53:36;9.43;;;2.58;;
48526;SDS011;34317;51.660;5.824;2023-02-01T08:56:04;7.50;;;2.10;;
48526;SDS011;34317;51.660;5.824;2023-02-01T08:58:32;7.78;;;1.77;;
48526;SDS011;34317;51.660;5.824;2023-02-01T09:01:03;13.30;;;2.42;;
48526;SDS011;34317;51.660;5.824;2023-02-01T09:03:35;9.10;;;2.38;;
48526;SDS011;34317;51.660;5.824;2023-02-01T09:06:06;11.13;;;1.95;;
48526;SDS011;34317;51.660;5.824;2023-02-01T09:08:35;12.52;;;2.92;;
48526;SDS011;34317;51.660;5.824;2023-02-01T09:11:04;12.25;;;2.65;;
48526;SDS011;34317;51.660;5.824;2023-02-01T09:13:33;9.02;;;1.95;;
48526;SDS011;34317;51.660;5.824;2023-02-01T09:16:02;9.02;;;2.40;;
48526;SDS011;34317;51.660;5.824;2023-02-01T09:18:30;8.43;;;2.28;;
48526;SDS011;34317;51.660;5.824;2023-02-01T09:20:57;9.13;;;2.28;;
48526;SDS011;34317;51.660;5.824;2023-02-01T09:23:25;13.13;;;2.75;;
48526;SDS011;34317;51.660;5.824;2023-02-01T09:25:52;12.32;;;2.50;;
48526;SDS011;34317;51.660;5.824;2023-02-01T09:28:19;16.98;;;2.38;;
48526;SDS011;34317;51.660;5.824;2023-02-01T09:30:46;12.38;;;2.42;;
48526;SDS011;34317;51.660;5.824;2023-02-01T09:33:13;9.88;;;2.47;;
48526;SDS011;34317;51.660;5.824;2023-02-01T09:35:41;9.55;;;2.50;;
48526;SDS011;34317;51.660;5.824;2023-02-01T09:38:08;8.55;;;2.28;;
48526;SDS011;34317;51.660;5.824;2023-02-01T09:40:35;12.23;;;2.25;;
48526;SDS011;34317;51.660;5.824;2023-02-01T09:43:20;12.30;;;2.20;;
48526;SDS011;34317;51.660;5.824;2023-02-01T09:48:45;9.35;;;2.70;;
48526;SDS011;34317;51.660;5.824;2023-02-01T09:51:16;11.20;;;2.33;;
48526;SDS011;34317;51.660;5.824;2023-02-01T09:53:57;12.60;;;2.30;;
48526;SDS011;34317;51.660;5.824;2023-02-01T09:57:06;10.65;;;2.15;;
48526;SDS011;34317;51.660;5.824;2023-02-01T09:59:39;7.63;;;2.10;;
48526;SDS011;34317;51.660;5.824;2023-02-01T10:02:11;12.02;;;2.67;;
48526;SDS011;34317;51.660;5.824;2023-02-01T10:04:41;8.73;;;2.03;;
48526;SDS011;34317;51.660;5.824;2023-02-01T10:21:28;8.98;;;1.95;;
48526;SDS011;34317;51.660;5.824;2023-02-01T10:26:51;5.97;;;2.25;;
48526;SDS011;34317;51.660;5.824;2023-02-01T10:29:37;14.45;;;2.10;;
48526;SDS011;34317;51.660;5.824;2023-02-01T10:32:11;12.05;;;2.25;;
48526;SDS011;34317;51.660;5.824;2023-02-01T10:34:40;7.90;;;2.00;;
48526;SDS011;34317;51.660;5.824;2023-02-01T10:39:39;11.02;;;2.55;;
48526;SDS011;34317;51.660;5.824;2023-02-01T10:42:07;14.45;;;2.65;;
48526;SDS011;34317;51.660;5.824;2023-02-01T10:44:37;12.73;;;2.28;;
48526;SDS011;34317;51.660;5.824;2023-02-01T10:47:10;8.65;;;2.47;;
48526;SDS011;34317;51.660;5.824;2023-02-01T10:49:42;9.07;;;2.35;;
48526;SDS011;34317;51.660;5.824;2023-02-01T10:52:17;9.20;;;2.35;;
48526;SDS011;34317;51.660;5.824;2023-02-01T10:54:51;7.93;;;2.40;;
48526;SDS011;34317;51.660;5.824;2023-02-01T10:57:25;10.88;;;2.30;;
48526;SDS011;34317;51.660;5.824;2023-02-01T10:59:56;12.85;;;2.40;;
48526;SDS011;34317;51.660;5.824;2023-02-01T11:02:27;12.77;;;2.25;;
48526;SDS011;34317;51.660;5.824;2023-02-01T11:04:58;9.20;;;2.30;;
48526;SDS011;34317;51.660;5.824;2023-02-01T11:07:27;13.38;;;2.60;;
48526;SDS011;34317;51.660;5.824;2023-02-01T11:09:55;8.65;;;2.40;;
48526;SDS011;34317;51.660;5.824;2023-02-01T11:12:27;9.27;;;1.85;;
48526;SDS011;34317;51.660;5.824;2023-02-01T11:15:12;13.00;;;2.10;;
48526;SDS011;34317;51.660;5.824;2023-02-01T11:17:43;13.95;;;2.72;;
48526;SDS011;34317;51.660;5.824;2023-02-01T11:20:14;13.32;;;2.95;;
48526;SDS011;34317;51.660;5.824;2023-02-01T11:23:01;13.38;;;2.20;;
48526;SDS011;34317;51.660;5.824;2023-02-01T11:25:29;12.60;;;2.20;;
48526;SDS011;34317;51.660;5.824;2023-02-01T11:28:01;17.77;;;2.38;;
48526;SDS011;34317;51.660;5.824;2023-02-01T11:30:31;12.70;;;2.67;;
48526;SDS011;34317;51.660;5.824;2023-02-01T11:33:02;12.50;;;2.30;;
48526;SDS011;34317;51.660;5.824;2023-02-01T11:35:33;15.13;;;2.22;;
48526;SDS011;34317;51.660;5.824;2023-02-01T11:38:15;11.95;;;2.20;;
48526;SDS011;34317;51.660;5.824;2023-02-01T11:40:48;13.32;;;2.10;;
48526;SDS011;34317;51.660;5.824;2023-02-01T11:43:19;15.70;;;2.10;;
48526;SDS011;34317;51.660;5.824;2023-02-01T11:45:55;14.30;;;2.63;;
48526;SDS011;34317;51.660;5.824;2023-02-01T11:48:30;15.68;;;2.28;;
48526;SDS011;34317;51.660;5.824;2023-02-01T11:51:05;16.10;;;2.40;;
48526;SDS011;34317;51.660;5.824;2023-02-01T11:53:52;12.32;;;2.20;;
48526;SDS011;34317;51.660;5.824;2023-02-01T11:56:45;10.05;;;2.10;;
48526;SDS011;34317;51.660;5.824;2023-02-01T12:43:36;15.95;;;2.42;;
48526;SDS011;34317;51.660;5.824;2023-02-01T12:46:32;16.23;;;2.28;;
48526;SDS011;34317;51.660;5.824;2023-02-01T12:51:36;11.98;;;2.05;;
48526;SDS011;34317;51.660;5.824;2023-02-01T12:54:11;16.55;;;2.40;;
48526;SDS011;34317;51.660;5.824;2023-02-01T12:56:54;16.38;;;2.72;;
48526;SDS011;34317;51.660;5.824;2023-02-01T12:59:30;12.07;;;2.10;;
48526;SDS011;34317;51.660;5.824;2023-02-01T13:08:16;6.68;;;1.80;;
48526;SDS011;34317;51.660;5.824;2023-02-01T13:10:44;8.93;;;2.03;;
48526;SDS011;34317;51.660;5.824;2023-02-01T13:16:02;6.85;;;1.60;;
48526;SDS011;34317;51.660;5.824;2023-02-01T13:18:39;14.43;;;2.28;;
48526;SDS011;34317;51.660;5.824;2023-02-01T13:21:12;5.93;;;2.00;;
48526;SDS011;34317;51.660;5.824;2023-02-01T13:23:45;10.60;;;2.20;;
48526;SDS011;34317;51.660;5.824;2023-02-01T13:26:14;15.75;;;2.20;;
48526;SDS011;34317;51.660;5.824;2023-02-01T13:28:52;7.43;;;1.85;;
48526;SDS011;34317;51.660;5.824;2023-02-01T13:31:39;9.65;;;1.58;;
48526;SDS011;34317;51.660;5.824;2023-02-01T13:34:31;11.63;;;1.83;;
48526;SDS011;34317;51.660;5.824;2023-02-01T13:42:19;10.80;;;2.13;;
48526;SDS011;34317;51.660;5.824;2023-02-01T13:44:50;7.93;;;2.40;;
48526;SDS011;34317;51.660;5.824;2023-02-01T13:47:26;8.38;;;2.08;;
48526;SDS011;34317;51.660;5.824;2023-02-01T13:49:55;5.45;;;2.20;;
48526;SDS011;34317;51.660;5.824;2023-02-01T13:52:32;8.60;;;1.80;;
48526;SDS011;34317;51.660;5.824;2023-02-01T13:55:24;8.48;;;2.15;;
48526;SDS011;34317;51.660;5.824;2023-02-01T13:57:49;7.13;;;1.95;;
48526;SDS011;34317;51.660;5.824;2023-02-01T14:10:52;10.05;;;2.20;;
48526;SDS011;34317;51.660;5.824;2023-02-01T14:13:35;6.13;;;1.80;;
48526;SDS011;34317;51.660;5.824;2023-02-01T14:23:59;7.47;;;1.95;;
48526;SDS011;34317;51.660;5.824;2023-02-01T14:26:46;12.50;;;2.10;;
48526;SDS011;34317;51.660;5.824;2023-02-01T14:31:49;7.57;;;1.83;;
48526;SDS011;34317;51.660;5.824;2023-02-01T14:34:24;7.68;;;2.05;;
48526;SDS011;34317;51.660;5.824;2023-02-01T14:36:59;12.85;;;1.90;;
48526;SDS011;34317;51.660;5.824;2023-02-01T14:39:37;7.95;;;1.85;;
48526;SDS011;34317;51.660;5.824;2023-02-01T14:47:51;8.77;;;2.00;;
48526;SDS011;34317;51.660;5.824;2023-02-01T14:58:16;9.15;;;2.25;;
48526;SDS011;34317;51.660;5.824;2023-02-01T15:00:55;7.38;;;1.85;;
48526;SDS011;34317;51.660;5.824;2023-02-01T15:06:20;6.57;;;1.67;;
48526;SDS011;34317;51.660;5.824;2023-02-01T15:08:56;7.03;;;2.10;;
48526;SDS011;34317;51.660;5.824;2023-02-01T15:11:26;9.38;;;2.20;;
48526;SDS011;34317;51.660;5.824;2023-02-01T15:13:53;7.07;;;1.70;;
48526;SDS011;34317;51.660;5.824;2023-02-01T15:16:23;8.32;;;1.92;;
48526;SDS011;34317;51.660;5.824;2023-02-01T15:19:06;9.45;;;1.70;;
48526;SDS011;34317;51.660;5.824;2023-02-01T15:21:44;15.23;;;2.22;;
48526;SDS011;34317;51.660;5.824;2023-02-01T15:24:13;7.43;;;2.00;;
48526;SDS011;34317;51.660;5.824;2023-02-01T15:26:46;10.60;;;2.08;;
48526;SDS011;34317;51.660;5.824;2023-02-01T15:29:13;14.13;;;2.28;;
48526;SDS011;34317;51.660;5.824;2023-02-01T15:31:43;9.48;;;2.10;;
48526;SDS011;34317;51.660;5.824;2023-02-01T15:34:11;11.68;;;2.30;;
48526;SDS011;34317;51.660;5.824;2023-02-01T15:36:40;11.43;;;2.35;;
48526;SDS011;34317;51.660;5.824;2023-02-01T15:41:53;11.70;;;1.80;;
48526;SDS011;34317;51.660;5.824;2023-02-01T15:47:04;9.13;;;2.13;;
48526;SDS011;34317;51.660;5.824;2023-02-01T15:49:39;9.55;;;1.90;;
48526;SDS011;34317;51.660;5.824;2023-02-01T15:52:15;9.95;;;2.00;;
48526;SDS011;34317;51.660;5.824;2023-02-01T15:54:58;11.05;;;1.63;;
48526;SDS011;34317;51.660;5.824;2023-02-01T15:57:34;10.18;;;2.05;;
48526;SDS011;34317;51.660;5.824;2023-02-01T16:00:04;7.07;;;2.17;;
48526;SDS011;34317;51.660;5.824;2023-02-01T16:02:44;5.75;;;1.92;;
48526;SDS011;34317;51.660;5.824;2023-02-01T16:05:26;6.07;;;1.80;;
48526;SDS011;34317;51.660;5.824;2023-02-01T16:08:13;11.20;;;2.17;;
48526;SDS011;34317;51.660;5.824;2023-02-01T16:10:42;11.07;;;2.38;;
48526;SDS011;34317;51.660;5.824;2023-02-01T16:13:12;7.82;;;2.30;;
48526;SDS011;34317;51.660;5.824;2023-02-01T16:15:41;12.43;;;2.75;;
48526;SDS011;34317;51.660;5.824;2023-02-01T16:18:09;6.43;;;1.92;;
48526;SDS011;34317;51.660;5.824;2023-02-01T16:20:38;9.93;;;2.70;;
48526;SDS011;34317;51.660;5.824;2023-02-01T16:23:07;7.82;;;2.13;;
48526;SDS011;34317;51.660;5.824;2023-02-01T16:25:36;7.20;;;2.17;;
48526;SDS011;34317;51.660;5.824;2023-02-01T16:28:04;9.13;;;2.30;;
48526;SDS011;34317;51.660;5.824;2023-02-01T16:30:32;8.60;;;1.98;;
48526;SDS011;34317;51.660;5.824;2023-02-01T16:33:00;12.43;;;2.35;;
48526;SDS011;34317;51.660;5.824;2023-02-01T16:35:35;14.03;;;2.20;;
48526;SDS011;34317;51.660;5.824;2023-02-01T16:38:04;14.43;;;2.30;;
48526;SDS011;34317;51.660;5.824;2023-02-01T16:40:39;12.80;;;2.17;;
48526;SDS011;34317;51.660;5.824;2023-02-01T16:43:23;12.55;;;2.40;;
48526;SDS011;34317;51.660;5.824;2023-02-01T16:45:53;13.27;;;2.40;;
48526;SDS011;34317;51.660;5.824;2023-02-01T16:48:22;15.07;;;3.20;;
48526;SDS011;34317;51.660;5.824;2023-02-01T16:50:56;12.52;;;2.25;;
48526;SDS011;34317;51.660;5.824;2023-02-01T16:53:27;12.88;;;2.70;;
48526;SDS011;34317;51.660;5.824;2023-02-01T16:56:00;12.70;;;2.38;;
48526;SDS011;34317;51.660;5.824;2023-02-01T16:58:31;15.45;;;2.67;;
48526;SDS011;34317;51.660;5.824;2023-02-01T17:00:58;10.00;;;2.28;;
48526;SDS011;34317;51.660;5.824;2023-02-01T17:03:25;14.95;;;2.65;;
48526;SDS011;34317;51.660;5.824;2023-02-01T17:05:53;17.92;;;2.50;;
48526;SDS011;34317;51.660;5.824;2023-02-01T17:08:28;12.80;;;2.20;;
48526;SDS011;34317;51.660;5.824;2023-02-01T17:11:01;13.95;;;2.85;;
48526;SDS011;34317;51.660;5.824;2023-02-01T17:13:29;15.50;;;2.60;;
48526;SDS011;34317;51.660;5.824;2023-02-01T17:16:31;13.43;;;2.80;;
48526;SDS011;34317;51.660;5.824;2023-02-01T17:18:56;13.75;;;2.47;;
48526;SDS011;34317;51.660;5.824;2023-02-01T17:21:26;14.70;;;2.50;;
48526;SDS011;34317;51.660;5.824;2023-02-01T17:23:55;14.63;;;2.50;;
48526;SDS011;34317;51.660;5.824;2023-02-01T17:26:24;16.90;;;2.53;;
48526;SDS011;34317;51.660;5.824;2023-02-01T17:28:51;10.95;;;2.47;;
48526;SDS011;34317;51.660;5.824;2023-02-01T17:31:18;15.05;;;2.45;;
48526;SDS011;34317;51.660;5.824;2023-02-01T17:33:46;14.20;;;2.60;;
48526;SDS011;34317;51.660;5.824;2023-02-01T17:36:13;15.07;;;2.80;;
48526;SDS011;34317;51.660;5.824;2023-02-01T17:38:42;17.13;;;2.90;;
48526;SDS011;34317;51.660;5.824;2023-02-01T17:41:19;13.38;;;2.75;;
48526;SDS011;34317;51.660;5.824;2023-02-01T17:43:47;12.95;;;2.60;;
48526;SDS011;34317;51.660;5.824;2023-02-01T17:46:15;16.23;;;2.80;;
48526;SDS011;34317;51.660;5.824;2023-02-01T17:48:44;13.80;;;2.60;;
48526;SDS011;34317;51.660;5.824;2023-02-01T17:51:13;13.05;;;2.35;;
48526;SDS011;34317;51.660;5.824;2023-02-01T17:53:45;10.38;;;2.45;;